sensor_id;sensor_type;location;lat;lon;timestamp;P1;durP1;ratioP1;P2;durP2;ratioP2
19929;SDS011;10127;47.780;9.606;2022-10-16T00:01:05;9.93;;;5.22;;
19929;SDS011;10127;47.780;9.606;2022-10-16T00:03:41;6.57;;;3.72;;
19929;SDS011;10127;47.780;9.606;2022-10-16T00:06:07;7.40;;;3.15;;
19929;SDS011;10127;47.780;9.606;2022-10-16T00:08:34;7.00;;;3.60;;
19929;SDS011;10127;47.780;9.606;2022-10-16T00:11:05;8.05;;;3.95;;
19929;SDS011;10127;47.780;9.606;2022-10-16T00:13:33;9.88;;;5.90;;
19929;SDS011;10127;47.780;9.606;2022-10-16T00:16:00;7.63;;;4.03;;
19929;SDS011;10127;47.780;9.606;2022-10-16T00:18:27;9.05;;;3.75;;
19929;SDS011;10127;47.780;9.606;2022-10-16T00:20:53;11.13;;;3.63;;
19929;SDS011;10127;47.780;9.606;2022-10-16T00:23:19;7.38;;;3.53;;
19929;SDS011;10127;47.780;9.606;2022-10-16T00:25:45;9.73;;;3.90;;
19929;SDS011;10127;47.780;9.606;2022-10-16T00:28:19;13.73;;;3.40;;
19929;SDS011;10127;47.780;9.606;2022-10-16T00:30:44;6.50;;;3.22;;
19929;SDS011;10127;47.780;9.606;2022-10-16T00:33:10;6.60;;;2.88;;
19929;SDS011;10127;47.780;9.606;2022-10-16T00:35:35;9.18;;;2.70;;
19929;SDS011;10127;47.780;9.606;2022-10-16T00:38:01;6.10;;;2.85;;
19929;SDS011;10127;47.780;9.606;2022-10-16T00:40:27;4.75;;;2.42;;
19929;SDS011;10127;47.780;9.606;2022-10-16T00:42:53;9.70;;;3.72;;
19929;SDS011;10127;47.780;9.606;2022-10-16T00:45:18;9.18;;;2.78;;
19929;SDS011;10127;47.780;9.606;2022-10-16T00:47:44;12.50;;;3.05;;
19929;SDS011;10127;47.780;9.606;2022-10-16T00:50:27;5.68;;;2.83;;
19929;SDS011;10127;47.780;9.606;2022-10-16T00:52:54;4.60;;;2.72;;
19929;SDS011;10127;47.780;9.606;2022-10-16T00:55:21;9.52;;;2.88;;
19929;SDS011;10127;47.780;9.606;2022-10-16T00:57:48;6.40;;;3.00;;
19929;SDS011;10127;47.780;9.606;2022-10-16T01:00:21;4.00;;;2.58;;
19929;SDS011;10127;47.780;9.606;2022-10-16T01:02:56;4.57;;;2.72;;
19929;SDS011;10127;47.780;9.606;2022-10-16T01:05:24;10.85;;;3.55;;
19929;SDS011;10127;47.780;9.606;2022-10-16T01:08:00;7.82;;;3.92;;
19929;SDS011;10127;47.780;9.606;2022-10-16T01:10:48;5.82;;;2.97;;
19929;SDS011;10127;47.780;9.606;2022-10-16T01:13:33;8.52;;;3.40;;
19929;SDS011;10127;47.780;9.606;2022-10-16T01:16:14;10.68;;;2.92;;
19929;SDS011;10127;47.780;9.606;2022-10-16T01:18:54;5.28;;;3.08;;
19929;SDS011;10127;47.780;9.606;2022-10-16T01:21:38;8.40;;;3.10;;
19929;SDS011;10127;47.780;9.606;2022-10-16T01:35:25;5.43;;;2.80;;
19929;SDS011;10127;47.780;9.606;2022-10-16T01:40:32;16.15;;;2.67;;
19929;SDS011;10127;47.780;9.606;2022-10-16T01:43:08;6.85;;;3.17;;
19929;SDS011;10127;47.780;9.606;2022-10-16T01:45:50;10.50;;;2.65;;
19929;SDS011;10127;47.780;9.606;2022-10-16T01:48:18;6.07;;;2.65;;
19929;SDS011;10127;47.780;9.606;2022-10-16T01:50:48;8.27;;;2.53;;
19929;SDS011;10127;47.780;9.606;2022-10-16T01:53:19;4.60;;;2.60;;
19929;SDS011;10127;47.780;9.606;2022-10-16T01:55:46;12.18;;;2.60;;
19929;SDS011;10127;47.780;9.606;2022-10-16T01:58:14;8.18;;;2.75;;
19929;SDS011;10127;47.780;9.606;2022-10-16T02:00:41;11.50;;;5.57;;
19929;SDS011;10127;47.780;9.606;2022-10-16T02:03:09;7.38;;;3.30;;
19929;SDS011;10127;47.780;9.606;2022-10-16T02:05:41;6.22;;;2.70;;
19929;SDS011;10127;47.780;9.606;2022-10-16T02:08:11;5.85;;;3.10;;
19929;SDS011;10127;47.780;9.606;2022-10-16T02:10:37;4.00;;;2.67;;
19929;SDS011;10127;47.780;9.606;2022-10-16T02:13:06;3.38;;;2.38;;
19929;SDS011;10127;47.780;9.606;2022-10-16T02:15:39;9.68;;;3.00;;
19929;SDS011;10127;47.780;9.606;2022-10-16T02:18:05;6.95;;;2.80;;
19929;SDS011;10127;47.780;9.606;2022-10-16T02:20:33;9.57;;;2.88;;
19929;SDS011;10127;47.780;9.606;2022-10-16T02:23:11;7.70;;;2.53;;
19929;SDS011;10127;47.780;9.606;2022-10-16T02:25:41;4.65;;;2.47;;
19929;SDS011;10127;47.780;9.606;2022-10-16T02:28:18;4.53;;;2.17;;
19929;SDS011;10127;47.780;9.606;2022-10-16T02:30:50;5.75;;;2.28;;
19929;SDS011;10127;47.780;9.606;2022-10-16T02:33:27;4.60;;;2.28;;
19929;SDS011;10127;47.780;9.606;2022-10-16T02:35:55;7.13;;;2.50;;
19929;SDS011;10127;47.780;9.606;2022-10-16T02:38:22;5.82;;;2.00;;
19929;SDS011;10127;47.780;9.606;2022-10-16T02:40:49;8.75;;;2.65;;
19929;SDS011;10127;47.780;9.606;2022-10-16T02:43:15;5.00;;;2.40;;
19929;SDS011;10127;47.780;9.606;2022-10-16T02:45:41;7.90;;;2.92;;
19929;SDS011;10127;47.780;9.606;2022-10-16T02:48:07;7.45;;;2.70;;
19929;SDS011;10127;47.780;9.606;2022-10-16T03:11:12;11.70;;;3.08;;
19929;SDS011;10127;47.780;9.606;2022-10-16T03:23:26;11.07;;;2.38;;
19929;SDS011;10127;47.780;9.606;2022-10-16T03:25:51;12.00;;;3.17;;
19929;SDS011;10127;47.780;9.606;2022-10-16T03:28:17;11.98;;;2.67;;
19929;SDS011;10127;47.780;9.606;2022-10-16T03:30:43;5.72;;;2.70;;
19929;SDS011;10127;47.780;9.606;2022-10-16T03:33:09;5.57;;;2.95;;
19929;SDS011;10127;47.780;9.606;2022-10-16T03:35:34;5.00;;;2.88;;
19929;SDS011;10127;47.780;9.606;2022-10-16T03:38:00;8.38;;;3.10;;
19929;SDS011;10127;47.780;9.606;2022-10-16T03:40:26;19.00;;;2.70;;
19929;SDS011;10127;47.780;9.606;2022-10-16T03:42:51;14.93;;;4.68;;
19929;SDS011;10127;47.780;9.606;2022-10-16T03:45:20;17.55;;;8.15;;
19929;SDS011;10127;47.780;9.606;2022-10-16T03:47:45;10.23;;;3.60;;
19929;SDS011;10127;47.780;9.606;2022-10-16T03:50:12;9.82;;;2.50;;
19929;SDS011;10127;47.780;9.606;2022-10-16T03:52:37;11.10;;;2.78;;
19929;SDS011;10127;47.780;9.606;2022-10-16T03:55:03;8.38;;;2.85;;
19929;SDS011;10127;47.780;9.606;2022-10-16T03:57:29;6.20;;;2.83;;
19929;SDS011;10127;47.780;9.606;2022-10-16T03:59:55;4.05;;;2.33;;
19929;SDS011;10127;47.780;9.606;2022-10-16T04:02:20;17.80;;;2.60;;
19929;SDS011;10127;47.780;9.606;2022-10-16T04:04:46;6.93;;;2.45;;
19929;SDS011;10127;47.780;9.606;2022-10-16T04:07:11;3.95;;;2.60;;
19929;SDS011;10127;47.780;9.606;2022-10-16T04:09:37;6.07;;;2.10;;
19929;SDS011;10127;47.780;9.606;2022-10-16T04:12:02;9.82;;;2.70;;
19929;SDS011;10127;47.780;9.606;2022-10-16T04:14:28;7.07;;;2.53;;
19929;SDS011;10127;47.780;9.606;2022-10-16T04:16:54;5.95;;;2.45;;
19929;SDS011;10127;47.780;9.606;2022-10-16T04:19:19;10.80;;;3.20;;
19929;SDS011;10127;47.780;9.606;2022-10-16T04:21:46;7.25;;;2.90;;
19929;SDS011;10127;47.780;9.606;2022-10-16T04:24:11;7.75;;;2.80;;
19929;SDS011;10127;47.780;9.606;2022-10-16T04:26:37;8.60;;;3.08;;
19929;SDS011;10127;47.780;9.606;2022-10-16T04:29:03;6.18;;;2.10;;
19929;SDS011;10127;47.780;9.606;2022-10-16T04:31:29;9.70;;;2.53;;
19929;SDS011;10127;47.780;9.606;2022-10-16T04:33:55;8.40;;;2.38;;
19929;SDS011;10127;47.780;9.606;2022-10-16T04:36:20;5.95;;;3.13;;
19929;SDS011;10127;47.780;9.606;2022-10-16T04:38:46;6.55;;;2.20;;
19929;SDS011;10127;47.780;9.606;2022-10-16T04:41:11;9.57;;;2.65;;
19929;SDS011;10127;47.780;9.606;2022-10-16T04:43:37;6.25;;;2.30;;
19929;SDS011;10127;47.780;9.606;2022-10-16T04:46:03;9.18;;;2.60;;
19929;SDS011;10127;47.780;9.606;2022-10-16T04:48:29;4.28;;;2.47;;
19929;SDS011;10127;47.780;9.606;2022-10-16T04:50:55;5.90;;;2.60;;
19929;SDS011;10127;47.780;9.606;2022-10-16T04:53:21;14.77;;;2.85;;
19929;SDS011;10127;47.780;9.606;2022-10-16T04:55:47;8.20;;;2.42;;
19929;SDS011;10127;47.780;9.606;2022-10-16T04:58:13;6.75;;;2.50;;
19929;SDS011;10127;47.780;9.606;2022-10-16T05:00:38;12.30;;;2.67;;
19929;SDS011;10127;47.780;9.606;2022-10-16T05:03:04;15.23;;;3.05;;
19929;SDS011;10127;47.780;9.606;2022-10-16T05:05:32;7.95;;;3.15;;
19929;SDS011;10127;47.780;9.606;2022-10-16T05:07:58;4.57;;;2.70;;
19929;SDS011;10127;47.780;9.606;2022-10-16T05:10:24;12.63;;;2.70;;
19929;SDS011;10127;47.780;9.606;2022-10-16T05:12:49;7.68;;;2.72;;
19929;SDS011;10127;47.780;9.606;2022-10-16T05:15:16;8.48;;;3.00;;
19929;SDS011;10127;47.780;9.606;2022-10-16T05:17:42;6.93;;;2.92;;
19929;SDS011;10127;47.780;9.606;2022-10-16T05:20:07;7.22;;;2.45;;
19929;SDS011;10127;47.780;9.606;2022-10-16T05:22:33;9.07;;;2.85;;
19929;SDS011;10127;47.780;9.606;2022-10-16T05:24:59;8.15;;;2.50;;
19929;SDS011;10127;47.780;9.606;2022-10-16T05:27:24;11.75;;;2.78;;
19929;SDS011;10127;47.780;9.606;2022-10-16T05:29:50;10.65;;;2.25;;
19929;SDS011;10127;47.780;9.606;2022-10-16T05:32:16;5.97;;;2.63;;
19929;SDS011;10127;47.780;9.606;2022-10-16T05:34:42;6.38;;;2.28;;
19929;SDS011;10127;47.780;9.606;2022-10-16T05:37:08;4.15;;;2.20;;
19929;SDS011;10127;47.780;9.606;2022-10-16T05:39:34;10.65;;;2.53;;
19929;SDS011;10127;47.780;9.606;2022-10-16T05:42:00;7.55;;;2.47;;
19929;SDS011;10127;47.780;9.606;2022-10-16T05:44:25;10.13;;;2.47;;
19929;SDS011;10127;47.780;9.606;2022-10-16T05:46:51;6.68;;;2.30;;
19929;SDS011;10127;47.780;9.606;2022-10-16T05:49:16;8.90;;;2.45;;
19929;SDS011;10127;47.780;9.606;2022-10-16T05:51:42;4.63;;;2.10;;
19929;SDS011;10127;47.780;9.606;2022-10-16T05:54:08;10.30;;;2.63;;
19929;SDS011;10127;47.780;9.606;2022-10-16T05:56:34;17.20;;;2.65;;
19929;SDS011;10127;47.780;9.606;2022-10-16T05:58:59;6.47;;;3.60;;
19929;SDS011;10127;47.780;9.606;2022-10-16T06:01:25;9.90;;;3.83;;
19929;SDS011;10127;47.780;9.606;2022-10-16T06:03:51;15.18;;;4.70;;
19929;SDS011;10127;47.780;9.606;2022-10-16T06:06:21;21.98;;;8.75;;
19929;SDS011;10127;47.780;9.606;2022-10-16T06:08:49;18.30;;;8.95;;
19929;SDS011;10127;47.780;9.606;2022-10-16T06:11:16;34.70;;;11.48;;
19929;SDS011;10127;47.780;9.606;2022-10-16T06:13:43;28.67;;;12.27;;
19929;SDS011;10127;47.780;9.606;2022-10-16T06:16:11;30.45;;;10.48;;
19929;SDS011;10127;47.780;9.606;2022-10-16T06:18:37;16.08;;;6.07;;
19929;SDS011;10127;47.780;9.606;2022-10-16T06:21:10;13.00;;;3.97;;
19929;SDS011;10127;47.780;9.606;2022-10-16T06:23:39;12.93;;;4.20;;
19929;SDS011;10127;47.780;9.606;2022-10-16T06:26:11;9.18;;;4.20;;
19929;SDS011;10127;47.780;9.606;2022-10-16T06:28:38;10.20;;;2.90;;
19929;SDS011;10127;47.780;9.606;2022-10-16T06:31:05;10.80;;;4.40;;
19929;SDS011;10127;47.780;9.606;2022-10-16T06:33:32;11.52;;;4.90;;
19929;SDS011;10127;47.780;9.606;2022-10-16T06:36:02;7.38;;;3.55;;
19929;SDS011;10127;47.780;9.606;2022-10-16T06:38:29;6.57;;;3.30;;
19929;SDS011;10127;47.780;9.606;2022-10-16T06:40:55;6.50;;;3.20;;
19929;SDS011;10127;47.780;9.606;2022-10-16T06:43:21;6.57;;;3.10;;
19929;SDS011;10127;47.780;9.606;2022-10-16T06:45:51;9.88;;;3.05;;
19929;SDS011;10127;47.780;9.606;2022-10-16T06:48:20;8.27;;;2.72;;
19929;SDS011;10127;47.780;9.606;2022-10-16T06:50:59;8.43;;;2.88;;
19929;SDS011;10127;47.780;9.606;2022-10-16T06:53:29;10.23;;;2.60;;
19929;SDS011;10127;47.780;9.606;2022-10-16T06:55:57;10.90;;;2.47;;
19929;SDS011;10127;47.780;9.606;2022-10-16T06:58:23;12.20;;;2.90;;
19929;SDS011;10127;47.780;9.606;2022-10-16T07:00:48;10.38;;;2.75;;
19929;SDS011;10127;47.780;9.606;2022-10-16T07:03:19;5.80;;;2.70;;
19929;SDS011;10127;47.780;9.606;2022-10-16T07:05:45;9.20;;;3.08;;
19929;SDS011;10127;47.780;9.606;2022-10-16T07:08:11;8.85;;;3.25;;
19929;SDS011;10127;47.780;9.606;2022-10-16T07:10:37;11.43;;;2.97;;
19929;SDS011;10127;47.780;9.606;2022-10-16T07:13:03;5.40;;;3.08;;
19929;SDS011;10127;47.780;9.606;2022-10-16T07:15:28;6.10;;;3.05;;
19929;SDS011;10127;47.780;9.606;2022-10-16T07:17:54;9.52;;;3.10;;
19929;SDS011;10127;47.780;9.606;2022-10-16T07:20:20;10.55;;;3.22;;
19929;SDS011;10127;47.780;9.606;2022-10-16T07:22:45;8.15;;;2.90;;
19929;SDS011;10127;47.780;9.606;2022-10-16T07:25:11;6.75;;;2.88;;
19929;SDS011;10127;47.780;9.606;2022-10-16T07:27:37;9.60;;;2.58;;
19929;SDS011;10127;47.780;9.606;2022-10-16T07:30:03;6.97;;;2.45;;
19929;SDS011;10127;47.780;9.606;2022-10-16T07:32:29;7.07;;;2.53;;
19929;SDS011;10127;47.780;9.606;2022-10-16T07:34:56;5.10;;;2.67;;
19929;SDS011;10127;47.780;9.606;2022-10-16T07:37:22;10.60;;;2.33;;
19929;SDS011;10127;47.780;9.606;2022-10-16T07:39:47;3.55;;;1.92;;
19929;SDS011;10127;47.780;9.606;2022-10-16T07:42:13;3.90;;;2.05;;
19929;SDS011;10127;47.780;9.606;2022-10-16T07:44:39;3.78;;;2.13;;
19929;SDS011;10127;47.780;9.606;2022-10-16T07:47:05;4.20;;;1.80;;
19929;SDS011;10127;47.780;9.606;2022-10-16T07:49:31;5.03;;;2.13;;
19929;SDS011;10127;47.780;9.606;2022-10-16T07:51:56;6.13;;;2.15;;
19929;SDS011;10127;47.780;9.606;2022-10-16T07:54:22;5.18;;;1.70;;
19929;SDS011;10127;47.780;9.606;2022-10-16T07:56:47;6.45;;;2.50;;
19929;SDS011;10127;47.780;9.606;2022-10-16T07:59:13;5.57;;;2.15;;
19929;SDS011;10127;47.780;9.606;2022-10-16T08:01:39;5.70;;;2.03;;
19929;SDS011;10127;47.780;9.606;2022-10-16T08:04:05;9.85;;;2.35;;
19929;SDS011;10127;47.780;9.606;2022-10-16T08:06:34;3.67;;;2.67;;
19929;SDS011;10127;47.780;9.606;2022-10-16T08:09:01;7.57;;;2.42;;
19929;SDS011;10127;47.780;9.606;2022-10-16T08:11:27;11.25;;;2.30;;
19929;SDS011;10127;47.780;9.606;2022-10-16T08:13:53;12.82;;;2.40;;
19929;SDS011;10127;47.780;9.606;2022-10-16T08:16:18;7.35;;;3.13;;
19929;SDS011;10127;47.780;9.606;2022-10-16T08:18:44;5.43;;;2.63;;
19929;SDS011;10127;47.780;9.606;2022-10-16T08:21:14;9.52;;;3.10;;
19929;SDS011;10127;47.780;9.606;2022-10-16T08:23:41;8.50;;;2.55;;
19929;SDS011;10127;47.780;9.606;2022-10-16T08:26:07;4.53;;;2.25;;
19929;SDS011;10127;47.780;9.606;2022-10-16T08:28:33;5.15;;;2.17;;
19929;SDS011;10127;47.780;9.606;2022-10-16T08:31:07;6.05;;;1.98;;
19929;SDS011;10127;47.780;9.606;2022-10-16T08:33:37;6.05;;;1.85;;
19929;SDS011;10127;47.780;9.606;2022-10-16T08:36:04;11.68;;;2.20;;
19929;SDS011;10127;47.780;9.606;2022-10-16T08:38:31;4.72;;;1.75;;
19929;SDS011;10127;47.780;9.606;2022-10-16T08:41:02;6.50;;;1.40;;
19929;SDS011;10127;47.780;9.606;2022-10-16T08:49:35;8.75;;;1.60;;
19929;SDS011;10127;47.780;9.606;2022-10-16T08:52:02;3.38;;;1.70;;
19929;SDS011;10127;47.780;9.606;2022-10-16T08:54:29;7.47;;;1.40;;
19929;SDS011;10127;47.780;9.606;2022-10-16T08:57:12;3.38;;;1.40;;
19929;SDS011;10127;47.780;9.606;2022-10-16T08:59:46;5.18;;;1.35;;
19929;SDS011;10127;47.780;9.606;2022-10-16T09:07:42;5.13;;;1.20;;
19929;SDS011;10127;47.780;9.606;2022-10-16T09:18:29;5.68;;;1.42;;
19929;SDS011;10127;47.780;9.606;2022-10-16T09:24:00;15.32;;;8.25;;
19929;SDS011;10127;47.780;9.606;2022-10-16T09:26:38;4.85;;;1.35;;
19929;SDS011;10127;47.780;9.606;2022-10-16T09:29:04;8.23;;;2.42;;
19929;SDS011;10127;47.780;9.606;2022-10-16T09:31:29;2.28;;;1.10;;
19929;SDS011;10127;47.780;9.606;2022-10-16T09:33:57;4.05;;;1.38;;
19929;SDS011;10127;47.780;9.606;2022-10-16T09:36:25;5.82;;;1.38;;
19929;SDS011;10127;47.780;9.606;2022-10-16T09:39:04;4.57;;;1.75;;
19929;SDS011;10127;47.780;9.606;2022-10-16T09:41:33;2.45;;;1.23;;
19929;SDS011;10127;47.780;9.606;2022-10-16T09:44:02;3.63;;;1.40;;
19929;SDS011;10127;47.780;9.606;2022-10-16T09:46:36;6.43;;;1.15;;
19929;SDS011;10127;47.780;9.606;2022-10-16T09:49:04;5.68;;;1.60;;
19929;SDS011;10127;47.780;9.606;2022-10-16T09:51:42;2.75;;;1.20;;
19929;SDS011;10127;47.780;9.606;2022-10-16T09:56:34;6.18;;;1.40;;
19929;SDS011;10127;47.780;9.606;2022-10-16T09:59:11;4.07;;;1.13;;
19929;SDS011;10127;47.780;9.606;2022-10-16T10:01:39;6.50;;;1.30;;
19929;SDS011;10127;47.780;9.606;2022-10-16T10:04:07;3.25;;;1.00;;
19929;SDS011;10127;47.780;9.606;2022-10-16T10:06:44;1.75;;;1.10;;
19929;SDS011;10127;47.780;9.606;2022-10-16T10:14:23;4.82;;;1.20;;
19929;SDS011;10127;47.780;9.606;2022-10-16T10:16:50;2.58;;;1.20;;
19929;SDS011;10127;47.780;9.606;2022-10-16T10:19:18;3.67;;;1.05;;
19929;SDS011;10127;47.780;9.606;2022-10-16T10:21:45;4.00;;;1.20;;
19929;SDS011;10127;47.780;9.606;2022-10-16T10:24:15;2.58;;;1.17;;
19929;SDS011;10127;47.780;9.606;2022-10-16T10:26:57;5.35;;;1.23;;
19929;SDS011;10127;47.780;9.606;2022-10-16T10:29:50;4.07;;;0.98;;
19929;SDS011;10127;47.780;9.606;2022-10-16T10:32:30;1.75;;;0.80;;
19929;SDS011;10127;47.780;9.606;2022-10-16T10:40:05;2.60;;;0.73;;
19929;SDS011;10127;47.780;9.606;2022-10-16T10:42:57;7.32;;;1.00;;
19929;SDS011;10127;47.780;9.606;2022-10-16T10:45:46;1.77;;;1.02;;
19929;SDS011;10127;47.780;9.606;2022-10-16T10:51:11;3.10;;;1.30;;
19929;SDS011;10127;47.780;9.606;2022-10-16T11:01:37;2.72;;;0.90;;
19929;SDS011;10127;47.780;9.606;2022-10-16T11:06:49;1.48;;;0.90;;
19929;SDS011;10127;47.780;9.606;2022-10-16T11:09:20;2.25;;;1.00;;
19929;SDS011;10127;47.780;9.606;2022-10-16T11:11:51;1.52;;;0.77;;
19929;SDS011;10127;47.780;9.606;2022-10-16T11:19:35;3.65;;;0.98;;
19929;SDS011;10127;47.780;9.606;2022-10-16T11:22:16;12.52;;;7.90;;
19929;SDS011;10127;47.780;9.606;2022-10-16T11:25:15;11.25;;;5.03;;
19929;SDS011;10127;47.780;9.606;2022-10-16T11:30:22;1.17;;;1.08;;
19929;SDS011;10127;47.780;9.606;2022-10-16T11:32:56;3.25;;;0.98;;
19929;SDS011;10127;47.780;9.606;2022-10-16T11:38:12;6.85;;;1.17;;
19929;SDS011;10127;47.780;9.606;2022-10-16T11:40:43;1.75;;;0.98;;
19929;SDS011;10127;47.780;9.606;2022-10-16T11:43:14;4.00;;;1.00;;
19929;SDS011;10127;47.780;9.606;2022-10-16T11:45:49;1.10;;;0.80;;
19929;SDS011;10127;47.780;9.606;2022-10-16T11:57:08;1.15;;;0.80;;
19929;SDS011;10127;47.780;9.606;2022-10-16T11:59:50;3.45;;;0.80;;
19929;SDS011;10127;47.780;9.606;2022-10-16T12:02:34;6.43;;;1.33;;
19929;SDS011;10127;47.780;9.606;2022-10-16T12:05:19;5.18;;;1.00;;
19929;SDS011;10127;47.780;9.606;2022-10-16T12:08:05;1.73;;;1.00;;
19929;SDS011;10127;47.780;9.606;2022-10-16T12:10:40;1.05;;;0.55;;
19929;SDS011;10127;47.780;9.606;2022-10-16T12:18:37;3.55;;;0.70;;
19929;SDS011;10127;47.780;9.606;2022-10-16T12:21:07;1.27;;;0.47;;
19929;SDS011;10127;47.780;9.606;2022-10-16T12:23:38;1.92;;;0.70;;
19929;SDS011;10127;47.780;9.606;2022-10-16T12:26:29;1.08;;;0.55;;
19929;SDS011;10127;47.780;9.606;2022-10-16T12:29:41;2.45;;;0.75;;
19929;SDS011;10127;47.780;9.606;2022-10-16T12:31:50;22.73;;;12.23;;
19929;SDS011;10127;47.780;9.606;2022-10-16T12:34:25;2.58;;;0.70;;
19929;SDS011;10127;47.780;9.606;2022-10-16T12:37:08;4.20;;;1.95;;
19929;SDS011;10127;47.780;9.606;2022-10-16T12:39:34;3.20;;;2.95;;
19929;SDS011;10127;47.780;9.606;2022-10-16T12:42:17;0.70;;;0.70;;
19929;SDS011;10127;47.780;9.606;2022-10-16T12:44:55;3.17;;;0.60;;
19929;SDS011;10127;47.780;9.606;2022-10-16T12:50:34;2.67;;;0.60;;
19929;SDS011;10127;47.780;9.606;2022-10-16T12:53:03;4.03;;;0.57;;
19929;SDS011;10127;47.780;9.606;2022-10-16T12:55:43;4.43;;;0.80;;
19929;SDS011;10127;47.780;9.606;2022-10-16T13:01:10;3.53;;;0.70;;
19929;SDS011;10127;47.780;9.606;2022-10-16T13:03:55;1.98;;;1.38;;
19929;SDS011;10127;47.780;9.606;2022-10-16T13:12:13;2.47;;;0.40;;
19929;SDS011;10127;47.780;9.606;2022-10-16T13:17:50;1.48;;;0.70;;
19929;SDS011;10127;47.780;9.606;2022-10-16T13:20:22;5.30;;;0.60;;
19929;SDS011;10127;47.780;9.606;2022-10-16T13:28:40;0.68;;;0.32;;
19929;SDS011;10127;47.780;9.606;2022-10-16T13:31:10;1.70;;;0.50;;
19929;SDS011;10127;47.780;9.606;2022-10-16T13:33:42;4.47;;;0.50;;
19929;SDS011;10127;47.780;9.606;2022-10-16T13:36:20;3.90;;;0.50;;
19929;SDS011;10127;47.780;9.606;2022-10-16T13:38:47;1.48;;;0.50;;
19929;SDS011;10127;47.780;9.606;2022-10-16T13:41:14;0.77;;;0.60;;
19929;SDS011;10127;47.780;9.606;2022-10-16T13:43:45;5.18;;;0.60;;
19929;SDS011;10127;47.780;9.606;2022-10-16T13:49:02;3.60;;;0.50;;
19929;SDS011;10127;47.780;9.606;2022-10-16T13:51:30;2.53;;;0.60;;
19929;SDS011;10127;47.780;9.606;2022-10-16T13:53:57;6.53;;;0.65;;
19929;SDS011;10127;47.780;9.606;2022-10-16T13:56:27;2.50;;;0.50;;
19929;SDS011;10127;47.780;9.606;2022-10-16T13:59:00;4.00;;;0.50;;
19929;SDS011;10127;47.780;9.606;2022-10-16T14:01:29;1.95;;;0.63;;
19929;SDS011;10127;47.780;9.606;2022-10-16T14:04:00;0.52;;;0.50;;
19929;SDS011;10127;47.780;9.606;2022-10-16T14:06:30;1.10;;;0.60;;
19929;SDS011;10127;47.780;9.606;2022-10-16T14:09:01;2.50;;;0.73;;
19929;SDS011;10127;47.780;9.606;2022-10-16T14:11:42;0.73;;;0.60;;
19929;SDS011;10127;47.780;9.606;2022-10-16T14:14:13;0.70;;;0.50;;
19929;SDS011;10127;47.780;9.606;2022-10-16T14:16:40;5.32;;;0.70;;
19929;SDS011;10127;47.780;9.606;2022-10-16T14:19:21;0.70;;;0.40;;
19929;SDS011;10127;47.780;9.606;2022-10-16T14:21:52;0.98;;;0.60;;
19929;SDS011;10127;47.780;9.606;2022-10-16T14:24:25;0.70;;;0.50;;
19929;SDS011;10127;47.780;9.606;2022-10-16T14:26:56;2.60;;;1.23;;
19929;SDS011;10127;47.780;9.606;2022-10-16T14:29:23;5.35;;;0.60;;
19929;SDS011;10127;47.780;9.606;2022-10-16T14:32:00;1.02;;;0.77;;
19929;SDS011;10127;47.780;9.606;2022-10-16T14:34:37;0.65;;;0.55;;
19929;SDS011;10127;47.780;9.606;2022-10-16T14:37:24;3.13;;;0.70;;
19929;SDS011;10127;47.780;9.606;2022-10-16T14:39:54;3.47;;;0.82;;
19929;SDS011;10127;47.780;9.606;2022-10-16T14:42:21;1.67;;;0.40;;
19929;SDS011;10127;47.780;9.606;2022-10-16T14:44:53;3.17;;;0.60;;
19929;SDS011;10127;47.780;9.606;2022-10-16T14:47:23;1.73;;;0.90;;
19929;SDS011;10127;47.780;9.606;2022-10-16T14:49:51;1.15;;;0.82;;
19929;SDS011;10127;47.780;9.606;2022-10-16T14:52:20;0.90;;;0.60;;
19929;SDS011;10127;47.780;9.606;2022-10-16T14:54:48;1.50;;;0.70;;
19929;SDS011;10127;47.780;9.606;2022-10-16T14:57:18;1.73;;;0.90;;
19929;SDS011;10127;47.780;9.606;2022-10-16T14:59:46;2.35;;;0.88;;
19929;SDS011;10127;47.780;9.606;2022-10-16T15:02:22;1.95;;;0.93;;
19929;SDS011;10127;47.780;9.606;2022-10-16T15:04:53;3.17;;;0.65;;
19929;SDS011;10127;47.780;9.606;2022-10-16T15:07:19;3.05;;;0.90;;
19929;SDS011;10127;47.780;9.606;2022-10-16T15:09:45;1.80;;;0.90;;
19929;SDS011;10127;47.780;9.606;2022-10-16T15:12:11;2.13;;;0.93;;
19929;SDS011;10127;47.780;9.606;2022-10-16T15:14:36;1.35;;;0.82;;
19929;SDS011;10127;47.780;9.606;2022-10-16T15:17:02;4.68;;;0.80;;
19929;SDS011;10127;47.780;9.606;2022-10-16T15:19:28;3.17;;;1.10;;
19929;SDS011;10127;47.780;9.606;2022-10-16T15:21:54;1.40;;;0.93;;
19929;SDS011;10127;47.780;9.606;2022-10-16T15:24:20;1.67;;;0.68;;
19929;SDS011;10127;47.780;9.606;2022-10-16T15:26:46;1.95;;;0.80;;
19929;SDS011;10127;47.780;9.606;2022-10-16T15:29:12;5.88;;;1.02;;
19929;SDS011;10127;47.780;9.606;2022-10-16T15:31:38;4.15;;;1.10;;
19929;SDS011;10127;47.780;9.606;2022-10-16T15:34:08;2.13;;;1.00;;
19929;SDS011;10127;47.780;9.606;2022-10-16T15:36:35;4.60;;;1.60;;
19929;SDS011;10127;47.780;9.606;2022-10-16T15:39:03;5.72;;;1.30;;
19929;SDS011;10127;47.780;9.606;2022-10-16T15:41:29;4.65;;;1.00;;
19929;SDS011;10127;47.780;9.606;2022-10-16T15:43:55;2.15;;;1.50;;
19929;SDS011;10127;47.780;9.606;2022-10-16T15:46:21;3.08;;;1.50;;
19929;SDS011;10127;47.780;9.606;2022-10-16T15:48:49;5.05;;;1.50;;
19929;SDS011;10127;47.780;9.606;2022-10-16T15:51:15;2.15;;;1.33;;
19929;SDS011;10127;47.780;9.606;2022-10-16T15:53:42;5.68;;;1.80;;
19929;SDS011;10127;47.780;9.606;2022-10-16T15:56:08;4.68;;;2.10;;
19929;SDS011;10127;47.780;9.606;2022-10-16T15:58:35;3.83;;;1.98;;
19929;SDS011;10127;47.780;9.606;2022-10-16T16:01:02;3.03;;;2.05;;
19929;SDS011;10127;47.780;9.606;2022-10-16T16:03:29;5.05;;;2.40;;
19929;SDS011;10127;47.780;9.606;2022-10-16T16:05:55;8.90;;;2.42;;
19929;SDS011;10127;47.780;9.606;2022-10-16T16:08:21;10.77;;;2.42;;
19929;SDS011;10127;47.780;9.606;2022-10-16T16:10:57;11.05;;;2.28;;
19929;SDS011;10127;47.780;9.606;2022-10-16T16:13:33;8.13;;;2.40;;
19929;SDS011;10127;47.780;9.606;2022-10-16T16:15:59;7.68;;;3.65;;
19929;SDS011;10127;47.780;9.606;2022-10-16T16:18:25;7.80;;;3.53;;
19929;SDS011;10127;47.780;9.606;2022-10-16T16:20:51;12.00;;;4.28;;
19929;SDS011;10127;47.780;9.606;2022-10-16T16:23:17;11.93;;;4.50;;
19929;SDS011;10127;47.780;9.606;2022-10-16T16:25:44;7.40;;;3.83;;
19929;SDS011;10127;47.780;9.606;2022-10-16T16:28:27;9.27;;;4.63;;
19929;SDS011;10127;47.780;9.606;2022-10-16T16:30:52;14.73;;;3.95;;
19929;SDS011;10127;47.780;9.606;2022-10-16T16:33:18;9.05;;;3.40;;
19929;SDS011;10127;47.780;9.606;2022-10-16T16:35:44;9.38;;;4.00;;
19929;SDS011;10127;47.780;9.606;2022-10-16T16:38:09;6.57;;;3.47;;
19929;SDS011;10127;47.780;9.606;2022-10-16T16:40:35;5.88;;;3.38;;
19929;SDS011;10127;47.780;9.606;2022-10-16T16:43:00;8.82;;;3.50;;
19929;SDS011;10127;47.780;9.606;2022-10-16T16:45:27;16.90;;;4.13;;
19929;SDS011;10127;47.780;9.606;2022-10-16T16:47:52;13.07;;;3.22;;
19929;SDS011;10127;47.780;9.606;2022-10-16T16:50:18;11.35;;;2.92;;
19929;SDS011;10127;47.780;9.606;2022-10-16T16:52:43;5.43;;;2.90;;
19929;SDS011;10127;47.780;9.606;2022-10-16T16:55:09;9.40;;;3.17;;
19929;SDS011;10127;47.780;9.606;2022-10-16T16:57:35;17.83;;;3.70;;
19929;SDS011;10127;47.780;9.606;2022-10-16T17:00:00;9.05;;;3.58;;
19929;SDS011;10127;47.780;9.606;2022-10-16T17:02:26;7.93;;;3.60;;
19929;SDS011;10127;47.780;9.606;2022-10-16T17:04:52;12.40;;;2.67;;
19929;SDS011;10127;47.780;9.606;2022-10-16T17:07:18;10.57;;;3.00;;
19929;SDS011;10127;47.780;9.606;2022-10-16T17:09:43;13.98;;;3.20;;
19929;SDS011;10127;47.780;9.606;2022-10-16T17:12:09;9.48;;;3.30;;
19929;SDS011;10127;47.780;9.606;2022-10-16T17:14:35;5.90;;;2.78;;
19929;SDS011;10127;47.780;9.606;2022-10-16T17:17:00;6.30;;;2.50;;
19929;SDS011;10127;47.780;9.606;2022-10-16T17:19:26;8.38;;;3.20;;